sensor_id;sensor_type;location;lat;lon;timestamp;P1;durP1;ratioP1;P2;durP2;ratioP2
22184;SDS011;11258;52.516;13.318;2023-08-07T00:02:03;5.10;;;2.65;;
22184;SDS011;11258;52.516;13.318;2023-08-07T00:04:29;4.75;;;3.20;;
22184;SDS011;11258;52.516;13.318;2023-08-07T00:06:55;4.78;;;2.80;;
22184;SDS011;11258;52.516;13.318;2023-08-07T00:09:20;3.53;;;3.10;;
22184;SDS011;11258;52.516;13.318;2023-08-07T00:11:46;5.63;;;3.10;;
22184;SDS011;11258;52.516;13.318;2023-08-07T00:14:11;4.07;;;2.88;;
22184;SDS011;11258;52.516;13.318;2023-08-07T00:16:37;5.97;;;2.97;;
22184;SDS011;11258;52.516;13.318;2023-08-07T00:19:02;7.35;;;3.83;;
22184;SDS011;11258;52.516;13.318;2023-08-07T00:21:28;10.05;;;3.55;;
22184;SDS011;11258;52.516;13.318;2023-08-07T00:23:54;6.68;;;3.65;;
22184;SDS011;11258;52.516;13.318;2023-08-07T00:26:20;4.10;;;2.85;;
22184;SDS011;11258;52.516;13.318;2023-08-07T00:28:46;4.82;;;3.00;;
22184;SDS011;11258;52.516;13.318;2023-08-07T00:31:11;5.53;;;3.28;;
22184;SDS011;11258;52.516;13.318;2023-08-07T00:33:37;6.50;;;3.33;;
22184;SDS011;11258;52.516;13.318;2023-08-07T00:36:03;4.70;;;2.83;;
22184;SDS011;11258;52.516;13.318;2023-08-07T00:38:29;7.82;;;3.15;;
22184;SDS011;11258;52.516;13.318;2023-08-07T00:40:55;5.07;;;3.55;;
22184;SDS011;11258;52.516;13.318;2023-08-07T00:43:20;14.80;;;7.63;;
22184;SDS011;11258;52.516;13.318;2023-08-07T00:45:46;5.38;;;3.88;;
22184;SDS011;11258;52.516;13.318;2023-08-07T00:48:13;9.68;;;5.00;;
22184;SDS011;11258;52.516;13.318;2023-08-07T00:50:41;3.97;;;3.13;;
22184;SDS011;11258;52.516;13.318;2023-08-07T00:53:07;5.45;;;3.28;;
22184;SDS011;11258;52.516;13.318;2023-08-07T00:55:34;8.13;;;3.50;;
22184;SDS011;11258;52.516;13.318;2023-08-07T00:58:00;5.18;;;3.15;;
22184;SDS011;11258;52.516;13.318;2023-08-07T01:00:27;3.80;;;2.90;;
22184;SDS011;11258;52.516;13.318;2023-08-07T01:02:54;4.15;;;2.90;;
22184;SDS011;11258;52.516;13.318;2023-08-07T01:05:21;5.95;;;3.63;;
22184;SDS011;11258;52.516;13.318;2023-08-07T01:07:49;4.18;;;2.70;;
22184;SDS011;11258;52.516;13.318;2023-08-07T01:10:19;4.45;;;2.92;;
22184;SDS011;11258;52.516;13.318;2023-08-07T01:12:52;4.88;;;3.65;;
22184;SDS011;11258;52.516;13.318;2023-08-07T01:15:30;6.50;;;3.30;;
22184;SDS011;11258;52.516;13.318;2023-08-07T01:17:58;3.75;;;3.13;;
22184;SDS011;11258;52.516;13.318;2023-08-07T01:20:25;5.93;;;3.25;;
22184;SDS011;11258;52.516;13.318;2023-08-07T01:22:51;6.28;;;3.00;;
22184;SDS011;11258;52.516;13.318;2023-08-07T01:25:16;4.75;;;3.10;;
22184;SDS011;11258;52.516;13.318;2023-08-07T01:27:44;3.92;;;3.05;;
22184;SDS011;11258;52.516;13.318;2023-08-07T01:30:26;4.50;;;3.03;;
22184;SDS011;11258;52.516;13.318;2023-08-07T01:35:35;3.75;;;3.17;;
22184;SDS011;11258;52.516;13.318;2023-08-07T01:38:05;5.18;;;3.03;;
22184;SDS011;11258;52.516;13.318;2023-08-07T01:40:33;9.25;;;3.40;;
22184;SDS011;11258;52.516;13.318;2023-08-07T01:42:59;6.15;;;3.30;;
22184;SDS011;11258;52.516;13.318;2023-08-07T01:45:26;5.93;;;3.13;;
22184;SDS011;11258;52.516;13.318;2023-08-07T01:47:54;3.28;;;2.80;;
22184;SDS011;11258;52.516;13.318;2023-08-07T01:50:20;9.57;;;3.47;;
22184;SDS011;11258;52.516;13.318;2023-08-07T01:52:46;3.20;;;2.90;;
22184;SDS011;11258;52.516;13.318;2023-08-07T01:55:15;6.38;;;3.50;;
22184;SDS011;11258;52.516;13.318;2023-08-07T01:57:42;7.88;;;3.50;;
22184;SDS011;11258;52.516;13.318;2023-08-07T02:00:08;4.07;;;3.30;;
22184;SDS011;11258;52.516;13.318;2023-08-07T02:02:37;4.78;;;3.65;;
22184;SDS011;11258;52.516;13.318;2023-08-07T02:05:03;7.90;;;3.80;;
22184;SDS011;11258;52.516;13.318;2023-08-07T02:07:30;4.93;;;3.67;;
22184;SDS011;11258;52.516;13.318;2023-08-07T02:09:56;7.85;;;3.95;;
22184;SDS011;11258;52.516;13.318;2023-08-07T02:12:22;9.73;;;4.13;;
22184;SDS011;11258;52.516;13.318;2023-08-07T02:14:48;8.43;;;3.90;;
22184;SDS011;11258;52.516;13.318;2023-08-07T02:17:13;6.63;;;4.07;;
22184;SDS011;11258;52.516;13.318;2023-08-07T02:19:39;4.25;;;3.42;;
22184;SDS011;11258;52.516;13.318;2023-08-07T02:22:05;7.38;;;4.45;;
22184;SDS011;11258;52.516;13.318;2023-08-07T02:24:30;6.60;;;3.83;;
22184;SDS011;11258;52.516;13.318;2023-08-07T02:26:56;6.25;;;3.75;;
22184;SDS011;11258;52.516;13.318;2023-08-07T02:29:22;6.70;;;4.38;;
22184;SDS011;11258;52.516;13.318;2023-08-07T02:31:47;7.93;;;4.82;;
22184;SDS011;11258;52.516;13.318;2023-08-07T02:34:13;9.30;;;4.45;;
22184;SDS011;11258;52.516;13.318;2023-08-07T02:36:38;11.98;;;4.38;;
22184;SDS011;11258;52.516;13.318;2023-08-07T02:39:04;9.75;;;4.30;;
22184;SDS011;11258;52.516;13.318;2023-08-07T02:41:30;11.73;;;4.95;;
22184;SDS011;11258;52.516;13.318;2023-08-07T02:43:56;5.57;;;4.35;;
22184;SDS011;11258;52.516;13.318;2023-08-07T02:46:22;8.52;;;4.50;;
22184;SDS011;11258;52.516;13.318;2023-08-07T02:48:48;6.28;;;3.95;;
22184;SDS011;11258;52.516;13.318;2023-08-07T02:51:13;8.75;;;4.63;;
22184;SDS011;11258;52.516;13.318;2023-08-07T02:53:39;4.90;;;3.78;;
22184;SDS011;11258;52.516;13.318;2023-08-07T02:56:05;5.85;;;4.70;;
22184;SDS011;11258;52.516;13.318;2023-08-07T02:58:30;7.80;;;4.10;;
22184;SDS011;11258;52.516;13.318;2023-08-07T03:00:56;7.97;;;4.53;;
22184;SDS011;11258;52.516;13.318;2023-08-07T03:03:21;6.47;;;4.60;;
22184;SDS011;11258;52.516;13.318;2023-08-07T03:05:50;8.10;;;4.90;;
22184;SDS011;11258;52.516;13.318;2023-08-07T03:08:17;9.02;;;4.38;;
22184;SDS011;11258;52.516;13.318;2023-08-07T03:10:49;6.38;;;4.22;;
22184;SDS011;11258;52.516;13.318;2023-08-07T03:13:20;8.10;;;4.85;;
22184;SDS011;11258;52.516;13.318;2023-08-07T03:15:46;5.20;;;4.53;;
22184;SDS011;11258;52.516;13.318;2023-08-07T03:18:14;8.32;;;5.50;;
22184;SDS011;11258;52.516;13.318;2023-08-07T03:20:39;8.57;;;4.85;;
22184;SDS011;11258;52.516;13.318;2023-08-07T03:23:05;7.38;;;4.40;;
22184;SDS011;11258;52.516;13.318;2023-08-07T03:25:30;7.18;;;5.18;;
22184;SDS011;11258;52.516;13.318;2023-08-07T03:27:56;8.77;;;5.07;;
22184;SDS011;11258;52.516;13.318;2023-08-07T03:30:22;8.48;;;5.22;;
22184;SDS011;11258;52.516;13.318;2023-08-07T03:32:48;7.65;;;5.20;;
22184;SDS011;11258;52.516;13.318;2023-08-07T03:35:13;7.63;;;5.07;;
22184;SDS011;11258;52.516;13.318;2023-08-07T03:37:39;10.13;;;5.28;;
22184;SDS011;11258;52.516;13.318;2023-08-07T03:40:05;10.80;;;5.60;;
22184;SDS011;11258;52.516;13.318;2023-08-07T03:42:31;7.53;;;5.07;;
22184;SDS011;11258;52.516;13.318;2023-08-07T03:44:56;7.13;;;5.43;;
22184;SDS011;11258;52.516;13.318;2023-08-07T03:47:23;10.70;;;5.38;;
22184;SDS011;11258;52.516;13.318;2023-08-07T03:49:48;9.25;;;5.50;;
22184;SDS011;11258;52.516;13.318;2023-08-07T03:52:14;8.30;;;5.40;;
22184;SDS011;11258;52.516;13.318;2023-08-07T03:54:40;9.45;;;5.85;;
22184;SDS011;11258;52.516;13.318;2023-08-07T03:57:06;8.60;;;5.90;;
22184;SDS011;11258;52.516;13.318;2023-08-07T03:59:33;10.63;;;5.43;;
22184;SDS011;11258;52.516;13.318;2023-08-07T04:01:59;8.52;;;5.55;;
22184;SDS011;11258;52.516;13.318;2023-08-07T04:04:24;9.82;;;5.25;;
22184;SDS011;11258;52.516;13.318;2023-08-07T04:06:50;6.72;;;5.45;;
22184;SDS011;11258;52.516;13.318;2023-08-07T04:09:15;7.07;;;4.75;;
22184;SDS011;11258;52.516;13.318;2023-08-07T04:11:42;10.07;;;4.85;;
22184;SDS011;11258;52.516;13.318;2023-08-07T04:14:07;7.88;;;4.20;;
22184;SDS011;11258;52.516;13.318;2023-08-07T04:16:33;8.32;;;5.20;;
22184;SDS011;11258;52.516;13.318;2023-08-07T04:18:59;7.63;;;5.53;;
22184;SDS011;11258;52.516;13.318;2023-08-07T04:21:24;9.45;;;5.07;;
22184;SDS011;11258;52.516;13.318;2023-08-07T04:23:50;5.55;;;4.43;;
22184;SDS011;11258;52.516;13.318;2023-08-07T04:26:16;8.07;;;5.03;;
22184;SDS011;11258;52.516;13.318;2023-08-07T04:28:41;10.00;;;5.38;;
22184;SDS011;11258;52.516;13.318;2023-08-07T04:31:07;5.78;;;4.75;;
22184;SDS011;11258;52.516;13.318;2023-08-07T04:33:33;4.80;;;4.00;;
22184;SDS011;11258;52.516;13.318;2023-08-07T04:35:59;8.90;;;4.75;;
22184;SDS011;11258;52.516;13.318;2023-08-07T04:38:25;5.68;;;3.88;;
22184;SDS011;11258;52.516;13.318;2023-08-07T04:40:51;6.45;;;4.10;;
22184;SDS011;11258;52.516;13.318;2023-08-07T04:43:17;5.15;;;3.75;;
22184;SDS011;11258;52.516;13.318;2023-08-07T04:45:45;5.68;;;3.55;;
22184;SDS011;11258;52.516;13.318;2023-08-07T04:48:11;6.95;;;4.18;;
22184;SDS011;11258;52.516;13.318;2023-08-07T04:50:37;6.05;;;4.10;;
22184;SDS011;11258;52.516;13.318;2023-08-07T04:53:03;5.40;;;3.88;;
22184;SDS011;11258;52.516;13.318;2023-08-07T04:55:30;6.38;;;4.07;;
22184;SDS011;11258;52.516;13.318;2023-08-07T04:57:56;5.35;;;3.58;;
22184;SDS011;11258;52.516;13.318;2023-08-07T05:00:22;6.68;;;3.60;;
22184;SDS011;11258;52.516;13.318;2023-08-07T05:02:48;5.53;;;3.60;;
22184;SDS011;11258;52.516;13.318;2023-08-07T05:05:14;5.05;;;3.35;;
22184;SDS011;11258;52.516;13.318;2023-08-07T05:07:40;6.30;;;3.72;;
22184;SDS011;11258;52.516;13.318;2023-08-07T05:10:06;8.27;;;3.25;;
22184;SDS011;11258;52.516;13.318;2023-08-07T05:12:32;4.60;;;3.38;;
22184;SDS011;11258;52.516;13.318;2023-08-07T05:14:58;6.90;;;3.53;;
22184;SDS011;11258;52.516;13.318;2023-08-07T05:17:24;6.75;;;2.85;;
22184;SDS011;11258;52.516;13.318;2023-08-07T05:19:49;5.55;;;3.08;;
22184;SDS011;11258;52.516;13.318;2023-08-07T05:22:15;5.70;;;3.70;;
22184;SDS011;11258;52.516;13.318;2023-08-07T05:24:40;4.50;;;3.30;;
22184;SDS011;11258;52.516;13.318;2023-08-07T05:27:07;3.55;;;3.08;;
22184;SDS011;11258;52.516;13.318;2023-08-07T05:29:33;8.02;;;3.38;;
22184;SDS011;11258;52.516;13.318;2023-08-07T05:31:59;6.00;;;3.42;;
22184;SDS011;11258;52.516;13.318;2023-08-07T05:34:25;4.95;;;3.10;;
22184;SDS011;11258;52.516;13.318;2023-08-07T05:36:51;4.63;;;3.05;;
22184;SDS011;11258;52.516;13.318;2023-08-07T05:39:16;5.05;;;2.83;;
22184;SDS011;11258;52.516;13.318;2023-08-07T05:41:42;4.95;;;3.25;;
22184;SDS011;11258;52.516;13.318;2023-08-07T05:44:07;4.82;;;3.10;;
22184;SDS011;11258;52.516;13.318;2023-08-07T05:46:33;4.93;;;3.25;;
22184;SDS011;11258;52.516;13.318;2023-08-07T05:48:59;5.97;;;3.28;;
22184;SDS011;11258;52.516;13.318;2023-08-07T05:51:24;4.63;;;2.35;;
22184;SDS011;11258;52.516;13.318;2023-08-07T05:53:50;4.90;;;2.90;;
22184;SDS011;11258;52.516;13.318;2023-08-07T05:56:15;3.38;;;2.70;;
22184;SDS011;11258;52.516;13.318;2023-08-07T05:58:43;3.13;;;2.65;;
22184;SDS011;11258;52.516;13.318;2023-08-07T06:01:08;3.15;;;2.47;;
22184;SDS011;11258;52.516;13.318;2023-08-07T06:03:34;5.22;;;2.63;;
22184;SDS011;11258;52.516;13.318;2023-08-07T06:05:59;3.90;;;2.40;;
22184;SDS011;11258;52.516;13.318;2023-08-07T06:08:25;5.45;;;3.00;;
22184;SDS011;11258;52.516;13.318;2023-08-07T06:10:51;4.57;;;2.33;;
22184;SDS011;11258;52.516;13.318;2023-08-07T06:13:16;4.50;;;2.40;;
22184;SDS011;11258;52.516;13.318;2023-08-07T06:15:42;6.43;;;2.80;;
22184;SDS011;11258;52.516;13.318;2023-08-07T06:18:08;3.92;;;2.22;;
22184;SDS011;11258;52.516;13.318;2023-08-07T06:20:33;3.13;;;2.30;;
22184;SDS011;11258;52.516;13.318;2023-08-07T06:23:00;3.05;;;2.47;;
22184;SDS011;11258;52.516;13.318;2023-08-07T06:25:25;4.60;;;2.05;;
22184;SDS011;11258;52.516;13.318;2023-08-07T06:27:52;3.38;;;2.10;;
22184;SDS011;11258;52.516;13.318;2023-08-07T06:30:18;4.97;;;2.70;;
22184;SDS011;11258;52.516;13.318;2023-08-07T06:32:44;3.45;;;2.30;;
22184;SDS011;11258;52.516;13.318;2023-08-07T06:35:09;4.93;;;2.42;;
22184;SDS011;11258;52.516;13.318;2023-08-07T06:37:35;6.97;;;2.55;;
22184;SDS011;11258;52.516;13.318;2023-08-07T06:40:01;4.13;;;3.33;;
22184;SDS011;11258;52.516;13.318;2023-08-07T06:42:27;5.20;;;2.17;;
22184;SDS011;11258;52.516;13.318;2023-08-07T06:44:53;3.17;;;2.05;;
22184;SDS011;11258;52.516;13.318;2023-08-07T06:47:18;4.88;;;2.50;;
22184;SDS011;11258;52.516;13.318;2023-08-07T06:49:44;4.70;;;2.28;;
22184;SDS011;11258;52.516;13.318;2023-08-07T06:52:09;2.50;;;2.30;;
22184;SDS011;11258;52.516;13.318;2023-08-07T06:54:35;3.90;;;2.17;;
22184;SDS011;11258;52.516;13.318;2023-08-07T06:57:01;4.00;;;1.73;;
22184;SDS011;11258;52.516;13.318;2023-08-07T06:59:26;3.72;;;2.28;;
22184;SDS011;11258;52.516;13.318;2023-08-07T07:01:52;6.40;;;2.40;;
22184;SDS011;11258;52.516;13.318;2023-08-07T07:04:18;4.97;;;2.00;;
22184;SDS011;11258;52.516;13.318;2023-08-07T07:06:43;4.30;;;2.17;;
22184;SDS011;11258;52.516;13.318;2023-08-07T07:09:09;4.43;;;2.05;;
22184;SDS011;11258;52.516;13.318;2023-08-07T07:11:35;6.95;;;2.03;;
22184;SDS011;11258;52.516;13.318;2023-08-07T07:14:00;4.05;;;1.77;;
22184;SDS011;11258;52.516;13.318;2023-08-07T07:16:26;4.32;;;2.25;;
22184;SDS011;11258;52.516;13.318;2023-08-07T07:18:52;2.78;;;1.88;;
22184;SDS011;11258;52.516;13.318;2023-08-07T07:21:20;2.42;;;1.90;;
22184;SDS011;11258;52.516;13.318;2023-08-07T07:23:46;5.47;;;2.20;;
22184;SDS011;11258;52.516;13.318;2023-08-07T07:26:12;4.90;;;1.85;;
22184;SDS011;11258;52.516;13.318;2023-08-07T07:28:37;4.15;;;1.90;;
22184;SDS011;11258;52.516;13.318;2023-08-07T07:31:03;3.38;;;1.67;;
22184;SDS011;11258;52.516;13.318;2023-08-07T07:33:30;2.97;;;1.42;;
22184;SDS011;11258;52.516;13.318;2023-08-07T07:35:55;5.57;;;2.08;;
22184;SDS011;11258;52.516;13.318;2023-08-07T07:38:21;3.00;;;1.65;;
22184;SDS011;11258;52.516;13.318;2023-08-07T07:40:47;2.70;;;1.58;;
22184;SDS011;11258;52.516;13.318;2023-08-07T07:43:12;2.80;;;1.70;;
22184;SDS011;11258;52.516;13.318;2023-08-07T07:45:38;5.25;;;1.70;;
22184;SDS011;11258;52.516;13.318;2023-08-07T07:48:04;3.22;;;1.40;;
22184;SDS011;11258;52.516;13.318;2023-08-07T07:50:31;2.83;;;1.45;;
22184;SDS011;11258;52.516;13.318;2023-08-07T07:52:57;3.28;;;1.73;;
22184;SDS011;11258;52.516;13.318;2023-08-07T07:55:22;2.60;;;1.75;;
22184;SDS011;11258;52.516;13.318;2023-08-07T07:57:49;4.57;;;1.80;;
22184;SDS011;11258;52.516;13.318;2023-08-07T08:00:15;2.88;;;1.80;;
22184;SDS011;11258;52.516;13.318;2023-08-07T08:02:41;4.75;;;1.75;;
22184;SDS011;11258;52.516;13.318;2023-08-07T08:05:08;4.30;;;1.85;;
22184;SDS011;11258;52.516;13.318;2023-08-07T08:07:35;2.42;;;1.58;;
22184;SDS011;11258;52.516;13.318;2023-08-07T08:10:02;2.67;;;1.50;;
22184;SDS011;11258;52.516;13.318;2023-08-07T08:12:30;5.13;;;1.35;;
22184;SDS011;11258;52.516;13.318;2023-08-07T08:14:55;3.20;;;1.77;;
22184;SDS011;11258;52.516;13.318;2023-08-07T08:17:21;4.95;;;1.98;;
22184;SDS011;11258;52.516;13.318;2023-08-07T08:19:47;3.72;;;2.03;;
22184;SDS011;11258;52.516;13.318;2023-08-07T08:22:13;2.20;;;1.67;;
22184;SDS011;11258;52.516;13.318;2023-08-07T08:24:39;3.50;;;1.98;;
22184;SDS011;11258;52.516;13.318;2023-08-07T08:27:04;5.00;;;2.05;;
22184;SDS011;11258;52.516;13.318;2023-08-07T08:29:30;3.65;;;2.25;;
22184;SDS011;11258;52.516;13.318;2023-08-07T08:31:56;3.22;;;1.67;;
22184;SDS011;11258;52.516;13.318;2023-08-07T08:34:21;3.38;;;2.30;;
22184;SDS011;11258;52.516;13.318;2023-08-07T08:36:47;2.97;;;1.88;;
22184;SDS011;11258;52.516;13.318;2023-08-07T08:39:13;5.10;;;2.38;;
22184;SDS011;11258;52.516;13.318;2023-08-07T08:41:39;3.83;;;1.92;;
22184;SDS011;11258;52.516;13.318;2023-08-07T08:44:07;3.03;;;2.20;;
22184;SDS011;11258;52.516;13.318;2023-08-07T08:46:36;4.28;;;2.30;;
22184;SDS011;11258;52.516;13.318;2023-08-07T08:49:03;4.80;;;2.30;;
22184;SDS011;11258;52.516;13.318;2023-08-07T08:51:30;7.03;;;2.42;;
22184;SDS011;11258;52.516;13.318;2023-08-07T08:53:57;4.35;;;1.85;;
22184;SDS011;11258;52.516;13.318;2023-08-07T08:56:24;2.83;;;1.90;;
22184;SDS011;11258;52.516;13.318;2023-08-07T08:58:50;4.05;;;2.25;;
22184;SDS011;11258;52.516;13.318;2023-08-07T09:01:17;2.90;;;1.90;;
22184;SDS011;11258;52.516;13.318;2023-08-07T09:03:46;4.20;;;1.80;;
22184;SDS011;11258;52.516;13.318;2023-08-07T09:06:12;7.78;;;4.45;;
22184;SDS011;11258;52.516;13.318;2023-08-07T09:08:42;3.05;;;1.77;;
22184;SDS011;11258;52.516;13.318;2023-08-07T09:11:12;5.15;;;1.98;;
22184;SDS011;11258;52.516;13.318;2023-08-07T09:13:40;5.95;;;2.00;;
22184;SDS011;11258;52.516;13.318;2023-08-07T09:16:08;2.60;;;1.60;;
22184;SDS011;11258;52.516;13.318;2023-08-07T09:18:35;6.25;;;2.90;;
22184;SDS011;11258;52.516;13.318;2023-08-07T09:21:01;3.30;;;2.15;;
22184;SDS011;11258;52.516;13.318;2023-08-07T09:23:27;2.25;;;1.70;;
22184;SDS011;11258;52.516;13.318;2023-08-07T09:25:59;5.28;;;1.98;;
22184;SDS011;11258;52.516;13.318;2023-08-07T09:28:26;4.03;;;1.67;;
22184;SDS011;11258;52.516;13.318;2023-08-07T09:30:53;5.60;;;2.00;;
22184;SDS011;11258;52.516;13.318;2023-08-07T09:33:25;4.63;;;1.90;;
22184;SDS011;11258;52.516;13.318;2023-08-07T09:35:52;4.22;;;1.73;;
22184;SDS011;11258;52.516;13.318;2023-08-07T09:38:22;4.50;;;2.10;;
22184;SDS011;11258;52.516;13.318;2023-08-07T09:40:48;2.85;;;1.95;;
22184;SDS011;11258;52.516;13.318;2023-08-07T09:43:20;4.22;;;1.70;;
22184;SDS011;11258;52.516;13.318;2023-08-07T09:45:47;3.28;;;1.42;;
22184;SDS011;11258;52.516;13.318;2023-08-07T09:48:15;3.65;;;1.67;;
22184;SDS011;11258;52.516;13.318;2023-08-07T09:50:48;4.63;;;2.20;;
22184;SDS011;11258;52.516;13.318;2023-08-07T09:53:13;1.92;;;1.55;;
22184;SDS011;11258;52.516;13.318;2023-08-07T09:55:39;3.10;;;1.60;;
22184;SDS011;11258;52.516;13.318;2023-08-07T09:58:05;3.05;;;1.60;;
22184;SDS011;11258;52.516;13.318;2023-08-07T10:00:36;3.75;;;1.98;;
22184;SDS011;11258;52.516;13.318;2023-08-07T10:03:02;2.08;;;1.40;;
22184;SDS011;11258;52.516;13.318;2023-08-07T10:05:29;1.90;;;1.48;;
22184;SDS011;11258;52.516;13.318;2023-08-07T10:07:55;3.60;;;1.98;;
22184;SDS011;11258;52.516;13.318;2023-08-07T10:10:22;3.78;;;1.40;;
22184;SDS011;11258;52.516;13.318;2023-08-07T10:12:50;7.32;;;2.08;;
22184;SDS011;11258;52.516;13.318;2023-08-07T10:15:18;5.10;;;1.70;;
22184;SDS011;11258;52.516;13.318;2023-08-07T10:17:44;4.72;;;1.80;;
22184;SDS011;11258;52.516;13.318;2023-08-07T10:20:11;5.70;;;1.98;;
22184;SDS011;11258;52.516;13.318;2023-08-07T10:22:38;2.35;;;1.30;;
22184;SDS011;11258;52.516;13.318;2023-08-07T10:25:04;3.15;;;1.50;;
22184;SDS011;11258;52.516;13.318;2023-08-07T10:27:33;2.20;;;1.42;;
22184;SDS011;11258;52.516;13.318;2023-08-07T10:30:01;2.50;;;1.63;;
22184;SDS011;11258;52.516;13.318;2023-08-07T10:32:30;4.18;;;1.92;;
22184;SDS011;11258;52.516;13.318;2023-08-07T10:34:57;4.25;;;2.35;;
22184;SDS011;11258;52.516;13.318;2023-08-07T10:37:43;5.18;;;2.72;;
22184;SDS011;11258;52.516;13.318;2023-08-07T10:40:11;3.38;;;1.90;;
22184;SDS011;11258;52.516;13.318;2023-08-07T10:45:18;2.58;;;1.45;;
22184;SDS011;11258;52.516;13.318;2023-08-07T10:47:56;3.88;;;1.30;;
22184;SDS011;11258;52.516;13.318;2023-08-07T10:51:16;3.50;;;1.63;;
22184;SDS011;11258;52.516;13.318;2023-08-07T10:53:38;2.83;;;1.30;;
22184;SDS011;11258;52.516;13.318;2023-08-07T10:56:07;2.88;;;1.45;;
22184;SDS011;11258;52.516;13.318;2023-08-07T10:58:35;2.83;;;1.25;;
22184;SDS011;11258;52.516;13.318;2023-08-07T11:01:21;2.05;;;1.15;;
22184;SDS011;11258;52.516;13.318;2023-08-07T11:03:51;3.15;;;1.30;;
22184;SDS011;11258;52.516;13.318;2023-08-07T11:06:21;2.67;;;1.52;;
22184;SDS011;11258;52.516;13.318;2023-08-07T11:09:00;4.93;;;1.85;;
22184;SDS011;11258;52.516;13.318;2023-08-07T11:14:06;4.22;;;1.90;;
22184;SDS011;11258;52.516;13.318;2023-08-07T11:16:33;3.78;;;1.75;;
22184;SDS011;11258;52.516;13.318;2023-08-07T11:18:59;4.00;;;2.00;;
22184;SDS011;11258;52.516;13.318;2023-08-07T11:21:25;3.55;;;1.80;;
22184;SDS011;11258;52.516;13.318;2023-08-07T11:23:51;4.13;;;1.92;;
22184;SDS011;11258;52.516;13.318;2023-08-07T11:26:17;4.40;;;2.15;;
22184;SDS011;11258;52.516;13.318;2023-08-07T11:28:47;5.13;;;2.20;;
22184;SDS011;11258;52.516;13.318;2023-08-07T11:31:13;3.80;;;2.10;;
22184;SDS011;11258;52.516;13.318;2023-08-07T11:33:40;5.90;;;1.80;;
22184;SDS011;11258;52.516;13.318;2023-08-07T11:36:14;3.55;;;1.83;;
22184;SDS011;11258;52.516;13.318;2023-08-07T11:38:41;4.63;;;2.33;;
22184;SDS011;11258;52.516;13.318;2023-08-07T11:41:10;4.65;;;2.15;;
22184;SDS011;11258;52.516;13.318;2023-08-07T11:43:37;4.13;;;2.25;;
22184;SDS011;11258;52.516;13.318;2023-08-07T11:46:04;5.80;;;2.72;;
22184;SDS011;11258;52.516;13.318;2023-08-07T11:48:32;4.13;;;1.77;;
22184;SDS011;11258;52.516;13.318;2023-08-07T11:51:02;6.60;;;1.92;;
22184;SDS011;11258;52.516;13.318;2023-08-07T11:53:29;5.00;;;1.67;;
22184;SDS011;11258;52.516;13.318;2023-08-07T11:58:27;2.67;;;1.48;;
22184;SDS011;11258;52.516;13.318;2023-08-07T12:00:57;5.35;;;1.63;;
22184;SDS011;11258;52.516;13.318;2023-08-07T12:03:34;4.22;;;1.75;;
22184;SDS011;11258;52.516;13.318;2023-08-07T12:06:04;6.18;;;2.13;;
22184;SDS011;11258;52.516;13.318;2023-08-07T12:08:31;5.55;;;2.30;;
22184;SDS011;11258;52.516;13.318;2023-08-07T12:11:01;4.30;;;2.58;;
22184;SDS011;11258;52.516;13.318;2023-08-07T12:13:29;3.05;;;1.50;;
22184;SDS011;11258;52.516;13.318;2023-08-07T12:15:56;6.90;;;2.63;;
22184;SDS011;11258;52.516;13.318;2023-08-07T12:18:23;6.80;;;3.80;;
22184;SDS011;11258;52.516;13.318;2023-08-07T12:20:51;5.63;;;1.85;;
22184;SDS011;11258;52.516;13.318;2023-08-07T12:23:24;2.95;;;1.65;;
22184;SDS011;11258;52.516;13.318;2023-08-07T12:25:50;5.88;;;2.20;;
22184;SDS011;11258;52.516;13.318;2023-08-07T12:28:17;4.35;;;1.73;;
22184;SDS011;11258;52.516;13.318;2023-08-07T12:30:46;4.15;;;2.47;;
22184;SDS011;11258;52.516;13.318;2023-08-07T12:33:13;7.45;;;4.30;;
22184;SDS011;11258;52.516;13.318;2023-08-07T12:35:39;5.68;;;2.30;;
22184;SDS011;11258;52.516;13.318;2023-08-07T12:38:06;4.18;;;2.25;;
22184;SDS011;11258;52.516;13.318;2023-08-07T12:40:33;4.72;;;2.15;;
22184;SDS011;11258;52.516;13.318;2023-08-07T12:43:01;3.33;;;1.92;;
22184;SDS011;11258;52.516;13.318;2023-08-07T12:45:27;9.48;;;3.10;;
22184;SDS011;11258;52.516;13.318;2023-08-07T12:47:53;7.07;;;2.40;;
22184;SDS011;11258;52.516;13.318;2023-08-07T12:50:18;8.60;;;2.75;;
22184;SDS011;11258;52.516;13.318;2023-08-07T12:52:44;4.97;;;1.80;;
22184;SDS011;11258;52.516;13.318;2023-08-07T12:55:10;5.63;;;2.17;;
22184;SDS011;11258;52.516;13.318;2023-08-07T12:57:37;8.60;;;2.83;;
22184;SDS011;11258;52.516;13.318;2023-08-07T13:00:05;8.45;;;2.42;;
22184;SDS011;11258;52.516;13.318;2023-08-07T13:02:33;8.85;;;2.60;;
22184;SDS011;11258;52.516;13.318;2023-08-07T13:04:59;6.53;;;2.20;;
22184;SDS011;11258;52.516;13.318;2023-08-07T13:07:24;5.88;;;2.13;;
22184;SDS011;11258;52.516;13.318;2023-08-07T13:09:50;5.95;;;2.38;;
22184;SDS011;11258;52.516;13.318;2023-08-07T13:12:16;7.75;;;2.20;;
22184;SDS011;11258;52.516;13.318;2023-08-07T13:14:41;7.10;;;2.60;;
22184;SDS011;11258;52.516;13.318;2023-08-07T13:17:07;5.28;;;2.30;;
22184;SDS011;11258;52.516;13.318;2023-08-07T13:19:32;4.95;;;2.15;;
22184;SDS011;11258;52.516;13.318;2023-08-07T13:21:58;7.78;;;2.30;;
22184;SDS011;11258;52.516;13.318;2023-08-07T13:24:24;4.70;;;2.10;;
22184;SDS011;11258;52.516;13.318;2023-08-07T13:26:49;8.70;;;2.40;;
22184;SDS011;11258;52.516;13.318;2023-08-07T13:29:15;5.07;;;1.83;;
22184;SDS011;11258;52.516;13.318;2023-08-07T13:31:41;7.47;;;2.20;;
22184;SDS011;11258;52.516;13.318;2023-08-07T13:34:07;5.18;;;2.10;;
22184;SDS011;11258;52.516;13.318;2023-08-07T13:36:35;6.40;;;1.88;;
22184;SDS011;11258;52.516;13.318;2023-08-07T13:39:02;5.80;;;2.05;;
22184;SDS011;11258;52.516;13.318;2023-08-07T13:41:29;6.13;;;2.35;;
22184;SDS011;11258;52.516;13.318;2023-08-07T13:43:55;7.55;;;1.90;;
22184;SDS011;11258;52.516;13.318;2023-08-07T13:46:20;3.83;;;2.22;;
22184;SDS011;11258;52.516;13.318;2023-08-07T13:48:47;5.05;;;2.33;;
22184;SDS011;11258;52.516;13.318;2023-08-07T13:51:13;4.90;;;2.42;;
22184;SDS011;11258;52.516;13.318;2023-08-07T13:53:39;6.75;;;2.10;;
22184;SDS011;11258;52.516;13.318;2023-08-07T13:56:06;7.60;;;2.60;;
22184;SDS011;11258;52.516;13.318;2023-08-07T13:58:33;6.63;;;2.30;;
22184;SDS011;11258;52.516;13.318;2023-08-07T14:01:00;8.65;;;3.72;;
22184;SDS011;11258;52.516;13.318;2023-08-07T14:03:26;5.57;;;2.80;;
22184;SDS011;11258;52.516;13.318;2023-08-07T14:05:51;4.93;;;2.42;;
22184;SDS011;11258;52.516;13.318;2023-08-07T14:08:17;7.55;;;2.72;;
22184;SDS011;11258;52.516;13.318;2023-08-07T14:10:43;6.82;;;3.28;;
22184;SDS011;11258;52.516;13.318;2023-08-07T14:13:09;8.13;;;3.00;;
22184;SDS011;11258;52.516;13.318;2023-08-07T14:15:36;4.85;;;2.53;;
22184;SDS011;11258;52.516;13.318;2023-08-07T14:18:02;7.95;;;2.70;;
22184;SDS011;11258;52.516;13.318;2023-08-07T14:20:28;6.75;;;2.22;;
22184;SDS011;11258;52.516;13.318;2023-08-07T14:22:53;6.18;;;2.20;;
22184;SDS011;11258;52.516;13.318;2023-08-07T14:25:19;8.05;;;2.70;;
22184;SDS011;11258;52.516;13.318;2023-08-07T14:27:48;4.90;;;2.13;;
22184;SDS011;11258;52.516;13.318;2023-08-07T14:30:14;7.70;;;2.65;;
22184;SDS011;11258;52.516;13.318;2023-08-07T14:32:40;4.32;;;1.95;;
22184;SDS011;11258;52.516;13.318;2023-08-07T14:35:07;4.88;;;2.22;;
22184;SDS011;11258;52.516;13.318;2023-08-07T14:37:33;7.07;;;2.13;;
22184;SDS011;11258;52.516;13.318;2023-08-07T14:39:59;5.00;;;2.05;;
22184;SDS011;11258;52.516;13.318;2023-08-07T14:42:24;5.80;;;2.03;;